createdAt,value
2022-09-26T00:01:17.142Z,0.00
2022-09-26T00:06:48.576Z,0.00
2022-09-26T00:12:20.126Z,0.00
2022-09-26T00:17:51.700Z,0.00
2022-09-26T00:23:23.027Z,0.00
2022-09-26T00:28:54.299Z,0.00
2022-09-26T00:34:25.653Z,0.00
2022-09-26T00:39:56.806Z,0.00
2022-09-26T00:45:28.194Z,0.00
2022-09-26T00:50:59.540Z,0.00
2022-09-26T00:56:31.323Z,0.00
2022-09-26T01:02:03.144Z,0.00
2022-09-26T01:07:34.505Z,0.00
2022-09-26T01:13:06.121Z,0.00
2022-09-26T01:18:37.821Z,0.00
2022-09-26T01:24:09.130Z,0.00
2022-09-26T01:29:40.915Z,0.00
2022-09-26T01:35:12.112Z,0.00
2022-09-26T01:40:43.506Z,0.00
2022-09-26T01:46:15.050Z,0.00
2022-09-26T01:51:46.606Z,0.00
2022-09-26T01:57:18.403Z,0.00
2022-09-26T02:02:50.568Z,0.00
2022-09-26T02:08:22.018Z,0.00
2022-09-26T02:13:53.732Z,0.00
2022-09-26T02:19:25.479Z,0.00
2022-09-26T02:24:57.224Z,0.00
2022-09-26T02:30:29.022Z,0.00
2022-09-26T02:36:00.697Z,0.00
2022-09-26T02:41:32.157Z,0.00
2022-09-26T02:47:03.863Z,0.00
2022-09-26T02:52:35.212Z,0.00
2022-09-26T02:58:07.571Z,0.00
2022-09-26T03:03:39.506Z,0.00
2022-09-26T03:09:11.300Z,0.00
2022-09-26T03:14:42.746Z,0.00
2022-09-26T03:20:14.122Z,0.00
2022-09-26T03:25:45.991Z,0.00
2022-09-26T03:31:17.756Z,0.00
2022-09-26T03:42:18.511Z,0.00
2022-09-26T03:47:50.360Z,0.00
2022-09-26T03:53:22.076Z,0.00
2022-09-26T03:58:53.842Z,0.00
2022-09-26T04:04:25.131Z,0.00
2022-09-26T04:09:56.631Z,0.00
2022-09-26T04:15:28.171Z,0.00
2022-09-26T04:20:59.920Z,0.00
2022-09-26T04:26:31.287Z,0.00
2022-09-26T04:32:03.126Z,0.00
2022-09-26T04:37:35.021Z,0.00
2022-09-26T04:43:06.769Z,0.00
2022-09-26T04:48:38.357Z,0.00
2022-09-26T04:54:09.930Z,0.00
2022-09-26T04:59:41.448Z,0.00
2022-09-26T05:05:12.735Z,2.00
2022-09-26T05:10:44.702Z,5.00
2022-09-26T05:16:16.141Z,4.00
2022-09-26T05:21:47.518Z,18.00
2022-09-26T05:27:19.271Z,24.00
2022-09-26T05:32:51.088Z,26.00
2022-09-26T05:38:23.044Z,27.78
2022-09-26T05:43:54.856Z,13.00
2022-09-26T05:49:26.641Z,6.00
2022-09-26T05:54:58.371Z,16.00
2022-09-26T06:00:30.309Z,17.00
2022-09-26T06:11:31.634Z,74.06
2022-09-26T06:17:03.537Z,90.97
2022-09-26T06:22:35.536Z,136.74
2022-09-26T06:28:07.424Z,211.22
2022-09-26T06:33:38.964Z,233.49
2022-09-26T06:39:10.793Z,157.31
2022-09-26T06:44:42.508Z,171.01
2022-09-26T06:50:14.088Z,214.00
2022-09-26T06:55:45.460Z,215.03
2022-09-26T07:01:17.643Z,232.24
2022-09-26T07:06:49.320Z,206.90
2022-09-26T07:12:21.040Z,200.44
2022-09-26T07:17:52.871Z,284.01
2022-09-26T07:23:24.697Z,216.40
2022-09-26T07:28:56.490Z,267.71
2022-09-26T07:34:28.223Z,266.57
2022-09-26T07:40:01.738Z,418.25
2022-09-26T07:45:32.014Z,468.86
2022-09-26T07:51:08.993Z,450.81
2022-09-26T07:56:35.171Z,179.69
2022-09-26T08:02:07.252Z,362.89
2022-09-26T08:07:38.988Z,1393.08
2022-09-26T08:13:10.608Z,1933.20
2022-09-26T08:24:11.682Z,255.60
2022-09-26T08:29:43.468Z,213.46
2022-09-26T08:35:15.175Z,231.90
2022-09-26T08:40:46.790Z,204.74
2022-09-26T08:46:18.041Z,440.79
2022-09-26T08:51:51.464Z,255.33
2022-09-26T08:57:23.283Z,449.74
2022-09-26T09:02:54.975Z,429.35
2022-09-26T09:08:26.258Z,548.77
2022-09-26T09:10:38.657Z,519.91
2022-09-26T09:16:10.485Z,703.95
2022-09-26T09:21:42.178Z,567.02
2022-09-26T09:32:44.764Z,488.34
2022-09-26T09:38:16.047Z,667.62
2022-09-26T09:43:47.345Z,569.95
2022-09-26T09:49:18.762Z,719.03
2022-09-26T09:54:50.123Z,388.31
2022-09-26T10:00:21.294Z,160.16
2022-09-26T10:05:52.622Z,163.49
2022-09-26T10:11:24.130Z,189.02
2022-09-26T10:16:56.977Z,359.72
2022-09-26T10:22:28.635Z,292.05
2022-09-26T10:27:59.846Z,175.97
2022-09-26T10:33:31.384Z,143.59
2022-09-26T10:39:03.091Z,181.76
2022-09-26T10:44:34.755Z,446.08
2022-09-26T10:50:05.895Z,383.11
2022-09-26T10:55:37.261Z,302.73
2022-09-26T11:01:08.713Z,530.92
2022-09-26T11:06:40.026Z,517.87
2022-09-26T11:12:11.291Z,522.70
2022-09-26T11:17:42.737Z,502.77
2022-09-26T11:23:14.603Z,477.53
2022-09-26T11:28:46.541Z,470.73
2022-09-26T11:34:17.962Z,489.56
2022-09-26T11:39:49.377Z,492.33
2022-09-26T11:45:20.704Z,485.73
2022-09-26T11:50:52.001Z,483.92
2022-09-26T11:56:23.273Z,477.45
2022-09-26T12:01:54.722Z,444.74
2022-09-26T12:07:26.014Z,433.72
2022-09-26T12:12:57.226Z,443.50
2022-09-26T12:18:28.612Z,438.87
2022-09-26T12:35:00.839Z,128.76
2022-09-26T12:40:32.397Z,388.74
2022-09-26T12:46:05.978Z,345.77
2022-09-26T12:51:37.866Z,323.91
2022-09-26T12:57:09.260Z,340.91
2022-09-26T13:02:40.748Z,315.07
2022-09-26T13:08:12.068Z,320.52
2022-09-26T13:13:43.847Z,310.14
2022-09-26T13:19:15.243Z,338.39
2022-09-26T13:24:46.456Z,322.13
2022-09-26T13:30:17.622Z,303.41
2022-09-26T13:35:49.080Z,272.78
2022-09-26T13:41:20.270Z,269.64
2022-09-26T13:43:43.567Z,289.47
2022-09-26T13:49:15.085Z,287.60
2022-09-26T13:54:46.252Z,263.42
2022-09-26T14:00:17.764Z,265.15
2022-09-26T14:05:49.419Z,250.49
2022-09-26T14:11:20.684Z,265.08
2022-09-26T14:16:52.429Z,266.17
2022-09-26T14:22:24.063Z,237.51
2022-09-26T14:27:58.154Z,212.05
2022-09-26T14:33:29.477Z,238.63
2022-09-26T14:39:01.148Z,226.98
2022-09-26T14:44:36.923Z,229.35
2022-09-26T14:50:04.935Z,218.80
2022-09-26T14:55:36.346Z,219.24
2022-09-26T15:01:07.995Z,203.80
2022-09-26T15:06:39.458Z,194.93
2022-09-26T15:12:11.310Z,202.37
2022-09-26T15:17:43.267Z,188.04
2022-09-26T15:23:14.655Z,192.24
2022-09-26T15:28:46.857Z,178.20
2022-09-26T15:34:18.353Z,179.22
2022-09-26T15:39:49.590Z,163.70
2022-09-26T15:45:20.995Z,157.07
2022-09-26T15:50:52.663Z,144.98
2022-09-26T15:56:24.053Z,129.15
2022-09-26T16:01:55.709Z,128.81
2022-09-26T16:07:27.001Z,106.86
2022-09-26T16:12:58.425Z,103.03
2022-09-26T16:18:29.754Z,91.44
2022-09-26T16:24:01.265Z,85.08
2022-09-26T16:29:32.607Z,67.87
2022-09-26T16:35:04.127Z,59.08
2022-09-26T16:40:35.649Z,54.39
2022-09-26T16:46:07.231Z,47.36
2022-09-26T16:51:39.786Z,38.12
2022-09-26T16:57:10.308Z,28.00
2022-09-26T17:02:42.052Z,16.00
2022-09-26T17:08:13.493Z,7.00
2022-09-26T17:13:45.123Z,0.00
2022-09-26T17:19:16.476Z,0.00
2022-09-26T17:24:48.270Z,0.00
2022-09-26T17:30:19.373Z,0.00
2022-09-26T17:35:50.721Z,0.00
2022-09-26T17:41:22.295Z,0.00
2022-09-26T17:52:25.450Z,0.00
2022-09-26T17:57:57.227Z,0.00
2022-09-26T18:03:29.006Z,0.00
2022-09-26T18:09:00.677Z,0.00
2022-09-26T18:14:37.139Z,0.00
2022-09-26T18:20:08.691Z,0.00
2022-09-26T18:25:40.760Z,0.00
2022-09-26T18:31:12.133Z,0.00
2022-09-26T18:42:21.393Z,0.00
2022-09-26T18:53:24.666Z,0.00
2022-09-26T18:58:56.155Z,0.00
2022-09-26T19:04:27.634Z,0.00
2022-09-26T19:15:30.637Z,0.00
2022-09-26T19:21:02.285Z,0.00
2022-09-26T19:26:34.075Z,0.00
2022-09-26T19:32:05.328Z,0.00
2022-09-26T19:37:36.818Z,0.00
2022-09-26T19:43:08.598Z,0.00
2022-09-26T19:48:40.318Z,0.00
2022-09-26T19:54:13.841Z,0.00
2022-09-26T19:59:45.450Z,0.00
2022-09-26T20:05:17.177Z,0.00
2022-09-26T20:10:48.940Z,0.00
2022-09-26T20:16:20.911Z,0.00
2022-09-26T20:21:52.670Z,0.00
2022-09-26T20:27:24.705Z,0.00
2022-09-26T20:32:56.400Z,0.00
2022-09-26T20:38:27.702Z,0.00
2022-09-26T20:43:59.293Z,0.00
2022-09-26T20:49:31.197Z,0.00
2022-09-26T20:55:04.364Z,0.00
2022-09-26T21:00:36.135Z,0.00
2022-09-26T21:06:07.895Z,0.00
2022-09-26T21:11:39.850Z,0.00
2022-09-26T21:17:11.873Z,0.00
2022-09-26T21:19:36.031Z,0.00
2022-09-26T21:25:07.865Z,0.00
2022-09-26T21:30:39.922Z,0.00
2022-09-26T21:41:40.945Z,0.00
2022-09-26T21:47:14.384Z,0.00
2022-09-26T21:52:46.162Z,0.00
2022-09-26T21:58:18.039Z,0.00
2022-09-26T22:09:21.787Z,0.00
2022-09-26T22:14:53.511Z,0.00
2022-09-26T22:20:25.323Z,0.00
2022-09-26T22:31:30.310Z,0.00
2022-09-26T22:42:33.892Z,0.00
2022-09-26T22:53:39.204Z,0.00
2022-09-26T22:59:11.068Z,0.00
2022-09-26T23:04:42.986Z,0.00
2022-09-26T23:10:14.639Z,0.00
2022-09-26T23:15:47.047Z,0.00
2022-09-26T23:21:18.877Z,0.00
2022-09-26T23:26:50.485Z,0.00
2022-09-26T23:32:22.678Z,0.00
2022-09-26T23:37:54.569Z,0.00
2022-09-26T23:48:59.157Z,0.00
2022-09-26T23:54:30.895Z,0.00
